createdAt,value
2019-02-11T00:02:14.219Z,78.27
2019-02-11T00:07:22.424Z,79.26
2019-02-11T00:12:27.601Z,80.50
2019-02-11T00:17:33.867Z,83.18
2019-02-11T00:22:44.777Z,87.37
2019-02-11T00:27:52.232Z,90.13
2019-02-11T00:33:00.705Z,92.10
2019-02-11T00:38:06.763Z,93.30
2019-02-11T00:43:18.908Z,94.84
2019-02-11T00:48:20.083Z,96.03
2019-02-11T00:53:25.593Z,97.56
2019-02-11T00:58:34.092Z,97.30
2019-02-11T01:03:39.930Z,96.18
2019-02-11T01:08:45.605Z,95.61
2019-02-11T01:13:51.720Z,95.87
2019-02-11T01:18:57.131Z,95.61
2019-02-11T01:24:02.439Z,95.41
2019-02-11T01:29:07.873Z,93.85
2019-02-11T01:34:13.243Z,94.25
2019-02-11T01:39:19.119Z,94.96
2019-02-11T01:44:24.279Z,93.88
2019-02-11T01:49:29.851Z,94.71
2019-02-11T01:54:35.251Z,94.60
2019-02-11T01:59:40.607Z,94.53
2019-02-11T02:04:46.005Z,94.19
2019-02-11T02:09:51.402Z,94.36
2019-02-11T02:14:58.491Z,94.68
2019-02-11T02:20:09.325Z,94.52
2019-02-11T02:25:16.237Z,94.29
2019-02-11T02:30:21.498Z,94.82
2019-02-11T02:35:26.724Z,95.19
2019-02-11T02:40:31.905Z,95.45
2019-02-11T02:45:42.408Z,94.39
2019-02-11T02:50:47.927Z,94.76
2019-02-11T02:55:58.717Z,94.84
2019-02-11T03:01:04.927Z,94.12
2019-02-11T03:06:10.548Z,94.08
2019-02-11T03:11:18.389Z,94.18
2019-02-11T03:16:23.751Z,94.15
2019-02-11T03:21:29.303Z,94.44
2019-02-11T03:26:35.368Z,94.41
2019-02-11T03:31:43.832Z,93.97
2019-02-11T03:36:49.773Z,93.76
2019-02-11T03:41:57.703Z,92.75
2019-02-11T03:47:05.320Z,93.04
2019-02-11T03:52:10.716Z,93.09
2019-02-11T03:57:16.241Z,91.83
2019-02-11T04:02:23.365Z,91.08
2019-02-11T04:12:33.090Z,89.31
2019-02-11T04:17:38.507Z,89.02
2019-02-11T04:22:43.754Z,89.54
2019-02-11T04:27:48.948Z,90.23
2019-02-11T04:32:54.168Z,90.92
2019-02-11T04:37:59.593Z,91.22
2019-02-11T04:43:05.396Z,91.34
2019-02-11T04:48:10.729Z,91.00
2019-02-11T04:53:16.536Z,90.65
2019-02-11T04:58:22.459Z,90.91
2019-02-11T05:03:27.816Z,90.66
2019-02-11T05:08:33.372Z,90.97
2019-02-11T05:13:41.276Z,90.19
2019-02-11T05:18:50.063Z,90.17
2019-02-11T05:23:57.698Z,90.14
2019-02-11T05:29:03.390Z,90.14
2019-02-11T05:34:15.835Z,90.63
2019-02-11T05:39:32.592Z,91.00
2019-02-11T05:44:38.498Z,91.87
2019-02-11T05:49:44.151Z,92.07
2019-02-11T05:54:49.620Z,92.12
2019-02-11T05:59:54.874Z,93.00
2019-02-11T06:05:00.540Z,93.02
2019-02-11T06:10:08.700Z,92.89
2019-02-11T06:15:14.127Z,92.72
2019-02-11T06:20:19.805Z,92.02
2019-02-11T06:25:26.688Z,92.01
2019-02-11T06:30:32.123Z,92.10
2019-02-11T06:35:37.451Z,92.16
2019-02-11T06:40:42.885Z,92.04
2019-02-11T06:45:48.436Z,91.64
2019-02-11T06:50:54.059Z,92.39
2019-02-11T06:56:01.851Z,92.00
2019-02-11T07:01:16.091Z,91.96
2019-02-11T07:06:28.508Z,91.66
2019-02-11T07:11:48.235Z,91.18
2019-02-11T07:16:53.760Z,90.35
2019-02-11T07:21:59.268Z,89.70
2019-02-11T07:27:17.706Z,89.25
2019-02-11T07:32:23.651Z,88.37
2019-02-11T07:37:33.757Z,87.09
2019-02-11T07:42:45.362Z,85.87
2019-02-11T07:47:50.764Z,86.05
2019-02-11T07:52:59.526Z,86.65
2019-02-11T07:58:04.830Z,86.37
2019-02-11T08:03:09.972Z,85.43
2019-02-11T08:08:15.353Z,84.11
2019-02-11T08:13:20.970Z,84.28
2019-02-11T08:18:26.242Z,83.77
2019-02-11T08:23:38.448Z,84.16
2019-02-11T08:28:43.858Z,84.69
2019-02-11T08:33:50.888Z,85.41
2019-02-11T08:38:56.310Z,84.49
2019-02-11T08:44:01.501Z,82.70
2019-02-11T08:49:06.940Z,82.21
2019-02-11T08:54:16.910Z,83.07
2019-02-11T08:59:22.326Z,82.73
2019-02-11T09:04:32.513Z,82.75
2019-02-11T09:09:38.054Z,82.68
2019-02-11T09:14:48.534Z,82.99
2019-02-11T09:19:53.881Z,83.10
2019-02-11T09:24:59.558Z,81.94
2019-02-11T09:30:05.942Z,82.25
2019-02-11T09:35:20.319Z,82.66
2019-02-11T09:40:29.523Z,81.84
2019-02-11T09:45:39.014Z,81.01
2019-02-11T09:50:47.752Z,79.20
2019-02-11T09:55:58.488Z,79.12
2019-02-11T10:01:04.155Z,79.10
2019-02-11T10:06:09.322Z,79.50
2019-02-11T10:11:21.273Z,78.66
2019-02-11T10:16:34.432Z,76.99
2019-02-11T10:21:39.578Z,77.58
2019-02-11T10:26:47.148Z,77.80
2019-02-11T10:31:56.062Z,78.05
2019-02-11T10:37:02.315Z,78.74
2019-02-11T10:42:07.871Z,79.38
2019-02-11T10:47:16.941Z,79.34
2019-02-11T10:52:22.236Z,79.76
2019-02-11T10:57:27.940Z,79.81
2019-02-11T11:02:35.345Z,80.31
2019-02-11T11:07:51.343Z,80.58
2019-02-11T11:12:56.752Z,80.49
2019-02-11T11:18:01.862Z,79.41
2019-02-11T11:23:23.921Z,79.87
2019-02-11T11:28:32.962Z,80.96
2019-02-11T11:33:38.573Z,79.25
2019-02-11T11:38:44.710Z,79.66
2019-02-11T11:43:53.458Z,79.35
2019-02-11T11:49:07.334Z,77.38
2019-02-11T11:54:14.104Z,71.88
2019-02-11T11:59:20.683Z,60.73
2019-02-11T12:04:27.402Z,54.36
2019-02-11T12:09:32.554Z,58.38
2019-02-11T12:14:38.110Z,64.67
2019-02-11T12:19:44.159Z,67.28
2019-02-11T12:24:49.327Z,67.93
2019-02-11T12:29:54.718Z,66.90
2019-02-11T12:34:59.841Z,60.15
2019-02-11T12:40:10.592Z,62.42
2019-02-11T12:45:19.304Z,65.45
2019-02-11T12:50:43.046Z,67.61
2019-02-11T12:56:02.131Z,67.93
2019-02-11T13:01:06.503Z,68.70
2019-02-11T13:06:12.521Z,68.69
2019-02-11T13:11:21.473Z,68.61
2019-02-11T13:16:39.315Z,65.65
2019-02-11T13:21:48.353Z,54.54
2019-02-11T13:26:54.155Z,51.74
2019-02-11T13:32:00.774Z,49.57
2019-02-11T13:37:07.004Z,50.59
2019-02-11T13:42:12.397Z,56.84
2019-02-11T13:47:23.245Z,56.17
2019-02-11T13:52:32.457Z,53.18
2019-02-11T13:57:39.770Z,53.98
2019-02-11T14:02:54.394Z,49.44
2019-02-11T14:08:01.742Z,52.02
2019-02-11T14:13:07.178Z,56.37
2019-02-11T14:18:18.088Z,59.54
2019-02-11T14:23:23.723Z,60.92
2019-02-11T14:28:37.313Z,61.69
2019-02-11T14:33:43.248Z,61.54
2019-02-11T14:38:48.673Z,60.13
2019-02-11T14:43:55.222Z,58.84
2019-02-11T14:49:00.814Z,57.07
2019-02-11T14:54:07.691Z,57.94
2019-02-11T14:59:27.442Z,59.78
2019-02-11T15:04:59.174Z,60.14
2019-02-11T15:10:10.766Z,61.12
2019-02-11T15:15:31.518Z,61.96
2019-02-11T15:20:39.998Z,72.37
2019-02-11T15:25:56.775Z,78.25
2019-02-11T15:31:14.783Z,80.68
2019-02-11T15:36:22.601Z,80.94
2019-02-11T15:41:32.729Z,79.65
2019-02-11T15:46:39.428Z,79.81
2019-02-11T15:51:50.231Z,79.66
2019-02-11T15:56:55.521Z,79.69
2019-02-11T16:02:00.913Z,80.22
2019-02-11T16:07:06.102Z,80.64
2019-02-11T16:12:11.951Z,81.00
2019-02-11T16:17:18.637Z,81.52
2019-02-11T16:22:24.750Z,81.37
2019-02-11T16:27:31.830Z,81.21
2019-02-11T16:32:37.376Z,81.24
2019-02-11T16:37:42.851Z,81.35
2019-02-11T16:42:48.256Z,81.50
2019-02-11T16:47:53.674Z,80.98
2019-02-11T16:52:59.541Z,80.92
2019-02-11T16:58:04.877Z,81.28
2019-02-11T17:03:10.265Z,81.17
2019-02-11T17:08:18.049Z,80.70
2019-02-11T17:13:22.496Z,79.70
2019-02-11T17:18:33.165Z,79.34
2019-02-11T17:23:38.669Z,79.48
2019-02-11T17:28:50.513Z,79.13
2019-02-11T17:33:56.561Z,79.26
2019-02-11T17:39:02.282Z,79.25
2019-02-11T17:44:11.016Z,79.54
2019-02-11T17:49:22.387Z,79.17
2019-02-11T17:54:28.299Z,78.73
2019-02-11T17:59:33.831Z,78.32
2019-02-11T18:04:40.831Z,78.30
2019-02-11T18:09:46.562Z,78.43
2019-02-11T18:14:55.924Z,78.62
2019-02-11T18:20:01.095Z,78.53
2019-02-11T18:25:09.554Z,77.99
2019-02-11T18:30:16.423Z,77.47
2019-02-11T18:35:24.571Z,76.11
2019-02-11T18:40:29.860Z,75.18
2019-02-11T18:45:35.462Z,74.52
2019-02-11T18:50:40.671Z,73.89
2019-02-11T18:55:51.879Z,73.46
2019-02-11T19:01:00.828Z,73.54
2019-02-11T19:06:19.832Z,73.29
2019-02-11T19:11:25.573Z,72.80
2019-02-11T19:16:31.259Z,72.96
2019-02-11T19:21:37.043Z,72.80
2019-02-11T19:26:42.411Z,73.21
2019-02-11T19:31:47.617Z,73.51
2019-02-11T19:36:52.941Z,74.07
2019-02-11T19:41:58.691Z,74.82
2019-02-11T19:47:03.767Z,74.78
2019-02-11T19:52:09.666Z,75.16
2019-02-11T19:57:14.790Z,74.58
2019-02-11T20:02:19.873Z,75.11
2019-02-11T20:07:25.452Z,74.12
2019-02-11T20:12:31.112Z,73.60
2019-02-11T20:17:36.211Z,73.09
2019-02-11T20:22:41.463Z,73.07
2019-02-11T20:27:46.955Z,72.93
2019-02-11T20:32:52.315Z,72.51
2019-02-11T20:37:58.879Z,72.79
2019-02-11T20:43:04.351Z,72.62
2019-02-11T20:48:09.599Z,72.93
2019-02-11T20:53:14.805Z,72.83
2019-02-11T20:58:19.933Z,72.85
2019-02-11T21:03:25.558Z,72.95
2019-02-11T21:08:32.369Z,72.59
2019-02-11T21:13:38.009Z,73.05
2019-02-11T21:18:48.081Z,72.84
2019-02-11T21:23:56.438Z,73.17
2019-02-11T21:29:03.350Z,72.88
2019-02-11T21:34:10.073Z,73.11
2019-02-11T21:39:15.239Z,72.91
2019-02-11T21:44:23.451Z,73.16
2019-02-11T21:49:29.637Z,73.21
2019-02-11T21:54:36.968Z,73.24
2019-02-11T21:59:46.281Z,72.88
2019-02-11T22:04:54.171Z,72.66
2019-02-11T22:10:05.827Z,73.08
2019-02-11T22:15:12.751Z,73.57
2019-02-11T22:20:18.695Z,73.68
2019-02-11T22:25:23.801Z,74.18
2019-02-11T22:30:28.939Z,74.72
2019-02-11T22:35:33.997Z,75.45
2019-02-11T22:40:39.315Z,76.12
2019-02-11T22:45:44.413Z,77.16
2019-02-11T22:50:49.645Z,78.25
2019-02-11T22:55:55.505Z,79.03
2019-02-11T23:01:05.094Z,79.48
2019-02-11T23:06:11.332Z,79.71
2019-02-11T23:11:16.833Z,80.34
2019-02-11T23:16:21.900Z,80.48
2019-02-11T23:21:28.215Z,80.79
2019-02-11T23:26:33.435Z,80.91
2019-02-11T23:31:38.889Z,81.33
2019-02-11T23:36:44.166Z,81.47
2019-02-11T23:41:49.419Z,81.49
2019-02-11T23:46:54.746Z,81.41
2019-02-11T23:51:59.827Z,80.58
2019-02-11T23:57:05.182Z,80.26
